createdAt,value
2018-03-25T00:01:00.209Z,0
2018-03-25T00:02:00.934Z,0
2018-03-25T00:03:01.725Z,0
2018-03-25T00:04:02.540Z,0
2018-03-25T00:05:03.270Z,0
2018-03-25T00:06:03.973Z,0
2018-03-25T00:07:04.766Z,0
2018-03-25T00:08:05.494Z,0
2018-03-25T00:09:06.219Z,0
2018-03-25T00:10:06.986Z,0
2018-03-25T00:11:07.807Z,0
2018-03-25T00:12:08.516Z,0
2018-03-25T00:13:09.247Z,0
2018-03-25T00:14:09.984Z,0
2018-03-25T00:15:10.714Z,0
2018-03-25T00:16:11.826Z,0
2018-03-25T00:17:12.641Z,0
2018-03-25T00:18:13.416Z,0
2018-03-25T00:19:14.214Z,0
2018-03-25T00:20:14.948Z,0
2018-03-25T00:21:15.694Z,0
2018-03-25T00:22:16.412Z,0
2018-03-25T00:23:17.135Z,0
2018-03-25T00:24:17.858Z,0
2018-03-25T00:25:19.244Z,0
2018-03-25T00:26:19.964Z,0
2018-03-25T00:27:20.792Z,0
2018-03-25T00:28:21.491Z,0
2018-03-25T00:29:22.223Z,0
2018-03-25T00:30:22.948Z,0
2018-03-25T00:31:23.686Z,0
2018-03-25T00:32:24.426Z,0
2018-03-25T00:33:25.146Z,0
2018-03-25T00:34:25.871Z,0
2018-03-25T00:35:26.607Z,0
2018-03-25T00:36:27.728Z,0
2018-03-25T00:37:28.643Z,0
2018-03-25T00:38:29.376Z,0
2018-03-25T00:39:30.188Z,0
2018-03-25T00:40:30.965Z,0
2018-03-25T00:41:31.695Z,0
2018-03-25T00:42:32.411Z,0
2018-03-25T00:43:33.138Z,0
2018-03-25T00:44:33.876Z,0
2018-03-25T00:45:34.603Z,0
2018-03-25T00:46:35.339Z,0
2018-03-25T00:47:36.144Z,0
2018-03-25T00:48:36.914Z,0
2018-03-25T00:49:37.716Z,0
2018-03-25T00:50:38.439Z,0
2018-03-25T00:51:39.175Z,0
2018-03-25T00:52:39.893Z,0
2018-03-25T00:53:40.636Z,0
2018-03-25T00:54:41.354Z,0
2018-03-25T00:55:42.099Z,0
2018-03-25T00:56:42.817Z,0
2018-03-25T00:57:43.546Z,0
2018-03-25T00:58:44.300Z,0
2018-03-25T00:59:45.096Z,0
2018-03-25T01:00:45.811Z,0
2018-03-25T01:01:46.560Z,0
2018-03-25T01:02:47.353Z,0
2018-03-25T01:03:48.080Z,0
2018-03-25T01:04:48.801Z,0
2018-03-25T01:05:49.536Z,0
2018-03-25T01:06:50.330Z,0
2018-03-25T01:07:51.055Z,0
2018-03-25T01:08:51.777Z,0
2018-03-25T01:09:52.577Z,0
2018-03-25T01:10:53.385Z,0
2018-03-25T01:11:54.129Z,0
2018-03-25T01:12:54.919Z,0
2018-03-25T01:13:55.639Z,0
2018-03-25T01:14:56.768Z,0
2018-03-25T01:15:57.570Z,0
2018-03-25T01:16:58.361Z,0
2018-03-25T01:17:59.175Z,0
2018-03-25T01:18:59.906Z,0
2018-03-25T01:20:00.985Z,0
2018-03-25T01:21:01.704Z,0
2018-03-25T01:22:02.479Z,0
2018-03-25T01:23:03.237Z,0
2018-03-25T01:24:03.949Z,0
2018-03-25T01:25:04.775Z,0
2018-03-25T01:26:05.785Z,0
2018-03-25T01:27:06.557Z,0
2018-03-25T01:28:07.362Z,0
2018-03-25T01:29:08.127Z,0
2018-03-25T01:30:08.876Z,0
2018-03-25T01:31:09.663Z,0
2018-03-25T01:32:10.405Z,0
2018-03-25T01:33:11.130Z,0
2018-03-25T01:34:12.720Z,0
2018-03-25T01:35:13.729Z,0
2018-03-25T01:36:14.514Z,0
2018-03-25T01:37:15.236Z,0
2018-03-25T01:38:15.952Z,0
2018-03-25T01:39:16.672Z,0
2018-03-25T01:40:17.467Z,0
2018-03-25T01:41:18.241Z,0
2018-03-25T01:42:19.039Z,0
2018-03-25T01:43:19.763Z,0
2018-03-25T01:44:20.495Z,0
2018-03-25T01:45:21.281Z,0
2018-03-25T01:46:22.016Z,0
2018-03-25T01:47:22.855Z,0
2018-03-25T01:48:23.587Z,0
2018-03-25T01:49:24.473Z,0
2018-03-25T01:50:25.213Z,0
2018-03-25T01:51:25.933Z,0
2018-03-25T01:52:26.669Z,0
2018-03-25T01:53:27.457Z,0
2018-03-25T01:54:28.190Z,0
2018-03-25T01:55:28.981Z,0
2018-03-25T01:56:30.044Z,0
2018-03-25T01:57:30.751Z,0
2018-03-25T01:58:31.560Z,0
2018-03-25T01:59:32.264Z,0
2018-03-25T02:00:33.293Z,0
2018-03-25T02:01:33.993Z,0
2018-03-25T02:02:34.717Z,0
2018-03-25T02:03:35.434Z,0
2018-03-25T02:04:36.137Z,0
2018-03-25T02:05:36.854Z,0
2018-03-25T02:06:37.695Z,0
2018-03-25T02:07:38.419Z,0
2018-03-25T02:08:39.182Z,0
2018-03-25T02:09:39.989Z,0
2018-03-25T02:10:40.694Z,0
2018-03-25T02:11:41.424Z,0
2018-03-25T02:12:42.209Z,0
2018-03-25T02:13:43.309Z,0
2018-03-25T02:14:44.045Z,0
2018-03-25T02:15:44.807Z,0
2018-03-25T02:16:45.601Z,0
2018-03-25T02:17:46.337Z,0
2018-03-25T02:18:47.105Z,0
2018-03-25T02:19:47.823Z,0
2018-03-25T02:20:48.642Z,0
2018-03-25T02:21:49.975Z,0
2018-03-25T02:22:50.893Z,0
2018-03-25T02:23:51.681Z,0
2018-03-25T02:24:52.397Z,0
2018-03-25T02:25:53.186Z,0
2018-03-25T02:26:53.880Z,0
2018-03-25T02:27:54.692Z,0
2018-03-25T02:28:55.448Z,0
2018-03-25T02:29:56.175Z,0
2018-03-25T02:30:56.958Z,0
2018-03-25T02:31:57.700Z,0
2018-03-25T02:32:58.842Z,0
2018-03-25T02:33:59.603Z,0
2018-03-25T02:35:00.334Z,0
2018-03-25T02:36:02.724Z,0
2018-03-25T02:37:03.468Z,0
2018-03-25T02:38:04.277Z,0
2018-03-25T02:39:05.030Z,0
2018-03-25T02:40:05.762Z,0
2018-03-25T02:41:06.486Z,0
2018-03-25T02:42:07.200Z,0
2018-03-25T02:43:07.923Z,0
2018-03-25T02:44:08.651Z,0
2018-03-25T02:45:09.381Z,0
2018-03-25T02:46:10.192Z,0
2018-03-25T02:47:10.899Z,0
2018-03-25T02:48:11.633Z,0
2018-03-25T02:49:12.415Z,0
2018-03-25T02:50:13.152Z,0
2018-03-25T02:51:13.923Z,0
2018-03-25T02:52:14.664Z,0
2018-03-25T02:53:15.440Z,0
2018-03-25T02:54:16.204Z,0
2018-03-25T02:55:16.952Z,0
2018-03-25T02:56:17.663Z,0
2018-03-25T02:57:18.382Z,0
2018-03-25T02:58:19.103Z,0
2018-03-25T02:59:19.821Z,0
2018-03-25T03:00:20.533Z,0
2018-03-25T03:01:21.253Z,0
2018-03-25T03:02:21.986Z,0
2018-03-25T03:03:22.717Z,0
2018-03-25T03:04:23.765Z,0
2018-03-25T03:05:24.547Z,0
2018-03-25T03:06:25.264Z,0
2018-03-25T03:07:26.014Z,0
2018-03-25T03:08:26.795Z,0
2018-03-25T03:09:27.559Z,0
2018-03-25T03:10:28.292Z,0
2018-03-25T03:11:29.053Z,0
2018-03-25T03:12:29.761Z,0
2018-03-25T03:13:30.485Z,0
2018-03-25T03:14:31.203Z,0
2018-03-25T03:15:31.923Z,0
2018-03-25T03:16:32.651Z,0
2018-03-25T03:17:33.360Z,0
2018-03-25T03:18:34.087Z,0
2018-03-25T03:19:34.852Z,0
2018-03-25T03:20:35.631Z,0
2018-03-25T03:21:36.345Z,0
2018-03-25T03:22:37.069Z,0
2018-03-25T03:23:37.800Z,0
2018-03-25T03:24:38.524Z,0
2018-03-25T03:25:39.249Z,0
2018-03-25T03:26:40.022Z,0
2018-03-25T03:27:40.732Z,0
2018-03-25T03:28:41.477Z,0
2018-03-25T03:29:42.203Z,0
2018-03-25T03:30:42.925Z,0
2018-03-25T03:31:43.644Z,0
2018-03-25T03:32:44.436Z,0
2018-03-25T03:33:45.108Z,0
2018-03-25T03:34:45.888Z,0
2018-03-25T03:35:46.590Z,0
2018-03-25T03:36:47.306Z,0
2018-03-25T03:37:48.043Z,0
2018-03-25T03:38:48.793Z,0
2018-03-25T03:39:49.505Z,0
2018-03-25T03:40:50.232Z,0
2018-03-25T03:41:50.958Z,0
2018-03-25T03:42:51.671Z,0
2018-03-25T03:43:52.391Z,0
2018-03-25T03:44:53.128Z,0
2018-03-25T03:45:53.934Z,0
2018-03-25T03:46:54.651Z,0
2018-03-25T03:47:55.385Z,0
2018-03-25T03:48:56.093Z,0
2018-03-25T03:49:56.823Z,0
2018-03-25T03:50:57.591Z,0
2018-03-25T03:51:58.335Z,0
2018-03-25T03:52:59.053Z,0
2018-03-25T03:53:59.773Z,0
2018-03-25T03:55:00.894Z,0
2018-03-25T03:56:01.627Z,0
2018-03-25T03:57:02.345Z,0
2018-03-25T03:58:03.064Z,0
2018-03-25T03:59:03.783Z,0
2018-03-25T04:00:04.500Z,0
2018-03-25T04:01:05.227Z,0
2018-03-25T04:02:05.958Z,0
2018-03-25T04:03:06.679Z,0
2018-03-25T04:04:07.405Z,0
2018-03-25T04:05:08.115Z,0
2018-03-25T04:06:08.841Z,0
2018-03-25T04:07:09.550Z,0
2018-03-25T04:08:10.300Z,0
2018-03-25T04:09:11.040Z,0
2018-03-25T04:10:11.741Z,0
2018-03-25T04:11:12.459Z,0
2018-03-25T04:12:13.250Z,0
2018-03-25T04:13:14.038Z,0
2018-03-25T04:14:14.764Z,0
2018-03-25T04:15:15.494Z,0
2018-03-25T04:16:16.218Z,0
2018-03-25T04:17:17.054Z,0
2018-03-25T04:18:17.872Z,0
2018-03-25T04:19:18.579Z,0
2018-03-25T04:20:19.333Z,0
2018-03-25T04:21:20.045Z,0
2018-03-25T04:22:20.805Z,0
2018-03-25T04:23:21.512Z,0
2018-03-25T04:24:22.213Z,0
2018-03-25T04:25:22.950Z,0
2018-03-25T04:26:23.664Z,0
2018-03-25T04:27:24.402Z,0
2018-03-25T04:28:25.148Z,0
2018-03-25T04:29:25.933Z,0
2018-03-25T04:30:26.672Z,0
2018-03-25T04:31:27.432Z,0
2018-03-25T04:32:28.160Z,0
2018-03-25T04:33:28.868Z,0
2018-03-25T04:34:29.607Z,0
2018-03-25T04:35:30.419Z,0
2018-03-25T04:36:31.180Z,0
2018-03-25T04:37:31.905Z,0
2018-03-25T04:38:32.698Z,0
2018-03-25T04:39:33.433Z,0
2018-03-25T04:40:34.139Z,0
2018-03-25T04:41:34.861Z,0
2018-03-25T04:42:35.639Z,0
2018-03-25T04:43:36.374Z,0
2018-03-25T04:44:37.078Z,0
2018-03-25T04:45:37.808Z,0
2018-03-25T04:46:38.588Z,0
2018-03-25T04:47:39.354Z,0
2018-03-25T04:48:40.075Z,0
2018-03-25T04:49:40.793Z,0
2018-03-25T04:50:41.511Z,0
2018-03-25T04:51:42.237Z,0
2018-03-25T04:52:43.034Z,0
2018-03-25T04:53:43.793Z,0
2018-03-25T04:54:44.616Z,0
2018-03-25T04:55:45.335Z,0
2018-03-25T04:56:46.059Z,0
2018-03-25T04:57:46.845Z,0
2018-03-25T04:58:47.556Z,0
2018-03-25T04:59:48.380Z,0
2018-03-25T05:00:49.105Z,0
2018-03-25T05:01:49.871Z,0
2018-03-25T05:02:50.611Z,0
2018-03-25T05:03:51.872Z,0
2018-03-25T05:04:54.129Z,0
2018-03-25T05:05:55.520Z,0
2018-03-25T05:06:56.515Z,0
2018-03-25T05:07:57.321Z,0
2018-03-25T05:09:00.146Z,0
2018-03-25T05:10:02.030Z,0
2018-03-25T05:11:02.684Z,5
2018-03-25T05:12:03.410Z,5
2018-03-25T05:13:04.140Z,5
2018-03-25T05:14:04.925Z,5
2018-03-25T05:15:07.140Z,5
2018-03-25T05:16:08.029Z,5
2018-03-25T05:17:08.744Z,5
2018-03-25T05:18:09.486Z,11
2018-03-25T05:19:10.204Z,11
2018-03-25T05:20:10.925Z,11
2018-03-25T05:21:11.653Z,11
2018-03-25T05:22:12.463Z,16
2018-03-25T05:23:13.210Z,16
2018-03-25T05:24:14.059Z,16
2018-03-25T05:25:14.798Z,16
2018-03-25T05:26:15.566Z,22
2018-03-25T05:27:16.290Z,22
2018-03-25T05:28:17.040Z,22
2018-03-25T05:29:17.826Z,28
2018-03-25T05:30:18.543Z,28
2018-03-25T05:31:19.262Z,28
2018-03-25T05:32:19.983Z,33
2018-03-25T05:33:20.717Z,33
2018-03-25T05:34:21.491Z,33
2018-03-25T05:35:22.223Z,39
2018-03-25T05:36:22.950Z,39
2018-03-25T05:37:23.653Z,45
2018-03-25T05:38:24.411Z,45
2018-03-25T05:39:25.129Z,50
2018-03-25T05:40:25.848Z,50
2018-03-25T05:41:26.570Z,56
2018-03-25T05:42:27.294Z,56
2018-03-25T05:43:28.027Z,61
2018-03-25T05:44:28.741Z,61
2018-03-25T05:45:29.483Z,67
2018-03-25T05:46:30.251Z,67
2018-03-25T05:47:30.988Z,78
2018-03-25T05:48:31.794Z,84
2018-03-25T05:49:32.554Z,90
2018-03-25T05:50:33.275Z,90
2018-03-25T05:51:34.058Z,95
2018-03-25T05:52:34.850Z,95
2018-03-25T05:53:35.564Z,95
2018-03-25T05:54:36.300Z,101
2018-03-25T05:55:37.023Z,101
2018-03-25T05:56:37.809Z,101
2018-03-25T05:57:38.539Z,106
2018-03-25T05:58:39.322Z,112
2018-03-25T05:59:40.125Z,118
2018-03-25T06:00:40.853Z,123
2018-03-25T06:01:41.562Z,129
2018-03-25T06:02:42.296Z,135
2018-03-25T06:03:43.024Z,140
2018-03-25T06:04:43.740Z,140
2018-03-25T06:05:44.471Z,146
2018-03-25T06:06:45.208Z,151
2018-03-25T06:07:46.020Z,157
2018-03-25T06:08:46.738Z,157
2018-03-25T06:09:47.466Z,163
2018-03-25T06:10:48.590Z,163
2018-03-25T06:11:49.293Z,163
2018-03-25T06:12:50.000Z,163
2018-03-25T06:13:50.748Z,163
2018-03-25T06:14:51.501Z,163
2018-03-25T06:15:52.276Z,163
2018-03-25T06:16:53.041Z,168
2018-03-25T06:17:53.779Z,174
2018-03-25T06:18:54.507Z,180
2018-03-25T06:19:55.288Z,185
2018-03-25T06:20:56.031Z,185
2018-03-25T06:21:56.790Z,185
2018-03-25T06:22:57.519Z,180
2018-03-25T06:23:58.248Z,180
2018-03-25T06:24:59.027Z,180
2018-03-25T06:25:59.768Z,180
2018-03-25T06:27:00.491Z,185
2018-03-25T06:28:01.224Z,191
2018-03-25T06:29:02.024Z,191
2018-03-25T06:30:02.784Z,196
2018-03-25T06:31:03.534Z,208
2018-03-25T06:32:04.262Z,213
2018-03-25T06:33:05.056Z,213
2018-03-25T06:34:05.858Z,219
2018-03-25T06:35:06.665Z,219
2018-03-25T06:36:07.363Z,219
2018-03-25T06:37:08.185Z,219
2018-03-25T06:38:08.921Z,219
2018-03-25T06:39:09.675Z,213
2018-03-25T06:40:10.441Z,213
2018-03-25T06:41:11.163Z,219
2018-03-25T06:42:11.895Z,219
2018-03-25T06:43:12.624Z,225
2018-03-25T06:44:13.344Z,230
2018-03-25T06:45:14.066Z,236
2018-03-25T06:46:14.836Z,247
2018-03-25T06:47:15.572Z,253
2018-03-25T06:48:16.380Z,253
2018-03-25T06:49:17.095Z,253
2018-03-25T06:50:17.806Z,258
2018-03-25T06:51:18.530Z,264
2018-03-25T06:52:19.299Z,270
2018-03-25T06:53:20.029Z,281
2018-03-25T06:54:20.760Z,275
2018-03-25T06:55:21.497Z,275
2018-03-25T06:56:22.265Z,281
2018-03-25T06:57:23.003Z,281
2018-03-25T06:58:23.800Z,281
2018-03-25T06:59:25.150Z,286
2018-03-25T07:00:25.810Z,292
2018-03-25T07:01:26.554Z,292
2018-03-25T07:02:27.389Z,292
2018-03-25T07:03:28.149Z,298
2018-03-25T07:04:28.871Z,298
2018-03-25T07:05:29.603Z,298
2018-03-25T07:06:30.347Z,303
2018-03-25T07:07:31.067Z,309
2018-03-25T07:08:31.794Z,320
2018-03-25T07:09:32.621Z,326
2018-03-25T07:10:33.430Z,331
2018-03-25T07:11:34.247Z,331
2018-03-25T07:12:35.015Z,331
2018-03-25T07:13:35.821Z,337
2018-03-25T07:14:36.530Z,343
2018-03-25T07:15:37.260Z,348
2018-03-25T07:16:38.012Z,360
2018-03-25T07:17:38.805Z,365
2018-03-25T07:18:39.529Z,376
2018-03-25T07:19:40.296Z,388
2018-03-25T07:20:41.034Z,393
2018-03-25T07:21:41.787Z,410
2018-03-25T07:22:42.590Z,421
2018-03-25T07:23:43.383Z,438
2018-03-25T07:24:44.186Z,450
2018-03-25T07:25:45.078Z,455
2018-03-25T07:26:45.809Z,461
2018-03-25T07:27:46.543Z,461
2018-03-25T07:28:47.275Z,466
2018-03-25T07:29:48.005Z,472
2018-03-25T07:30:48.738Z,472
2018-03-25T07:31:49.470Z,478
2018-03-25T07:32:50.275Z,466
2018-03-25T07:33:51.017Z,461
2018-03-25T07:34:51.814Z,472
2018-03-25T07:35:52.635Z,483
2018-03-25T07:36:53.381Z,500
2018-03-25T07:37:54.101Z,517
2018-03-25T07:38:54.831Z,523
2018-03-25T07:39:55.570Z,528
2018-03-25T07:40:56.351Z,528
2018-03-25T07:41:57.079Z,534
2018-03-25T07:42:57.809Z,540
2018-03-25T07:43:58.547Z,545
2018-03-25T07:44:59.274Z,545
2018-03-25T07:46:00.074Z,551
2018-03-25T07:47:00.806Z,551
2018-03-25T07:48:01.532Z,556
2018-03-25T07:49:02.262Z,562
2018-03-25T07:50:03.088Z,562
2018-03-25T07:51:03.803Z,573
2018-03-25T07:52:04.524Z,573
2018-03-25T07:53:05.318Z,579
2018-03-25T07:54:06.042Z,579
2018-03-25T07:55:06.804Z,568
2018-03-25T07:56:07.531Z,568
2018-03-25T07:57:08.328Z,568
2018-03-25T07:58:09.081Z,568
2018-03-25T07:59:09.840Z,573
2018-03-25T08:00:10.655Z,585
2018-03-25T08:01:11.432Z,596
2018-03-25T08:02:12.215Z,601
2018-03-25T08:03:12.944Z,613
2018-03-25T08:04:13.674Z,624
2018-03-25T08:05:14.359Z,635
2018-03-25T08:06:15.105Z,641
2018-03-25T08:07:16.124Z,646
2018-03-25T08:08:16.872Z,658
2018-03-25T08:09:17.616Z,658
2018-03-25T08:10:18.395Z,652
2018-03-25T08:11:19.125Z,652
2018-03-25T08:12:19.980Z,652
2018-03-25T08:13:20.717Z,658
2018-03-25T08:14:21.454Z,663
2018-03-25T08:15:22.194Z,675
2018-03-25T08:16:22.934Z,675
2018-03-25T08:17:23.650Z,680
2018-03-25T08:18:24.364Z,697
2018-03-25T08:19:25.092Z,725
2018-03-25T08:20:25.895Z,753
2018-03-25T08:21:26.627Z,787
2018-03-25T08:22:27.338Z,815
2018-03-25T08:23:28.064Z,838
2018-03-25T08:24:28.798Z,866
2018-03-25T08:25:29.531Z,877
2018-03-25T08:26:30.271Z,883
2018-03-25T08:27:31.013Z,888
2018-03-25T08:28:31.786Z,888
2018-03-25T08:29:32.512Z,900
2018-03-25T08:30:33.256Z,922
2018-03-25T08:31:33.988Z,950
2018-03-25T08:32:34.783Z,961
2018-03-25T08:33:35.509Z,973
2018-03-25T08:34:36.316Z,978
2018-03-25T08:35:37.071Z,1001
2018-03-25T08:36:37.799Z,1018
2018-03-25T08:37:38.609Z,1023
2018-03-25T08:38:39.360Z,1018
2018-03-25T08:39:40.121Z,1012
2018-03-25T08:40:40.922Z,1023
2018-03-25T08:41:41.666Z,1051
2018-03-25T08:42:42.396Z,1085
2018-03-25T08:43:43.113Z,1102
2018-03-25T08:44:43.850Z,1108
2018-03-25T08:45:44.569Z,1119
2018-03-25T08:46:45.298Z,1136
2018-03-25T08:47:46.113Z,1181
2018-03-25T08:48:46.864Z,1186
2018-03-25T08:49:47.599Z,1209
2018-03-25T08:50:48.411Z,1237
2018-03-25T08:51:49.234Z,1440
2018-03-25T08:52:50.048Z,1254
2018-03-25T08:53:50.850Z,1186
2018-03-25T08:54:51.643Z,1198
2018-03-25T08:55:52.752Z,1231
2018-03-25T08:56:53.558Z,1271
2018-03-25T08:57:54.346Z,1288
2018-03-25T08:58:55.090Z,1237
2018-03-25T08:59:55.830Z,1192
2018-03-25T09:00:56.625Z,1164
2018-03-25T09:01:57.384Z,1288
2018-03-25T09:02:58.881Z,1181
2018-03-25T09:03:59.665Z,1175
2018-03-25T09:05:00.357Z,1192
2018-03-25T09:06:01.090Z,1237
2018-03-25T09:07:01.890Z,1254
2018-03-25T09:08:02.634Z,1243
2018-03-25T09:09:03.370Z,1220
2018-03-25T09:10:04.170Z,1215
2018-03-25T09:11:04.900Z,1276
2018-03-25T09:12:05.647Z,1411
2018-03-25T09:13:06.394Z,1468
2018-03-25T09:14:07.152Z,1417
2018-03-25T09:15:07.895Z,1485
2018-03-25T09:16:08.630Z,1507
2018-03-25T09:17:09.396Z,1428
2018-03-25T09:18:10.204Z,1389
2018-03-25T09:19:11.029Z,1338
2018-03-25T09:20:11.815Z,1507
2018-03-25T09:21:12.569Z,1648
2018-03-25T09:22:13.299Z,1850
2018-03-25T09:23:14.071Z,1535
2018-03-25T09:24:14.858Z,1760
2018-03-25T09:25:16.029Z,1473
2018-03-25T09:26:16.758Z,1417
2018-03-25T09:27:17.505Z,1440
2018-03-25T09:28:18.340Z,1485
2018-03-25T09:29:19.125Z,1552
2018-03-25T09:30:19.964Z,1608
2018-03-25T09:31:20.634Z,1597
2018-03-25T09:32:21.383Z,1603
2018-03-25T09:33:22.195Z,1541
2018-03-25T09:34:22.973Z,1473
2018-03-25T09:35:23.718Z,1490
2018-03-25T09:36:24.426Z,1501
2018-03-25T09:37:25.240Z,1479
2018-03-25T09:38:26.018Z,1473
2018-03-25T09:39:26.801Z,1496
2018-03-25T09:40:27.594Z,1490
2018-03-25T09:41:28.337Z,1501
2018-03-25T09:42:29.133Z,1411
2018-03-25T09:43:29.871Z,1383
2018-03-25T09:44:30.604Z,1400
2018-03-25T09:45:31.334Z,1428
2018-03-25T09:46:32.099Z,1428
2018-03-25T09:47:32.846Z,1395
2018-03-25T09:48:33.646Z,1383
2018-03-25T09:49:34.830Z,1389
2018-03-25T09:50:35.598Z,1383
2018-03-25T09:51:36.351Z,1395
2018-03-25T09:52:37.139Z,1395
2018-03-25T09:53:37.887Z,1434
2018-03-25T09:54:38.676Z,1479
2018-03-25T09:55:39.511Z,1507
2018-03-25T09:56:40.235Z,1496
2018-03-25T09:57:41.022Z,1456
2018-03-25T09:58:41.822Z,1440
2018-03-25T09:59:42.559Z,1440
2018-03-25T10:00:43.321Z,1451
2018-03-25T10:01:44.044Z,1490
2018-03-25T10:02:44.781Z,1490
2018-03-25T10:03:45.531Z,1485
2018-03-25T10:04:46.380Z,1496
2018-03-25T10:05:46.975Z,1513
2018-03-25T10:06:47.729Z,1535
2018-03-25T10:07:48.525Z,1580
2018-03-25T10:08:49.363Z,1586
2018-03-25T10:09:50.236Z,1597
2018-03-25T10:10:50.975Z,1631
2018-03-25T10:11:51.769Z,1575
2018-03-25T10:12:52.518Z,1524
2018-03-25T10:13:53.358Z,1507
2018-03-25T10:14:54.123Z,1524
2018-03-25T10:15:54.843Z,1569
2018-03-25T10:16:55.681Z,1625
2018-03-25T10:17:56.472Z,1648
2018-03-25T10:18:57.311Z,1575
2018-03-25T10:19:58.043Z,1530
2018-03-25T10:20:58.783Z,1507
2018-03-25T10:21:59.513Z,1530
2018-03-25T10:23:00.270Z,1490
2018-03-25T10:24:01.089Z,1501
2018-03-25T10:25:01.852Z,1456
2018-03-25T10:26:02.573Z,1440
2018-03-25T10:27:03.339Z,1456
2018-03-25T10:28:04.084Z,1473
2018-03-25T10:29:04.858Z,1479
2018-03-25T10:30:05.610Z,1501
2018-03-25T10:31:06.476Z,1546
2018-03-25T10:32:07.290Z,1535
2018-03-25T10:33:08.014Z,1546
2018-03-25T10:34:08.751Z,1597
2018-03-25T10:35:09.506Z,1580
2018-03-25T10:36:10.332Z,1569
2018-03-25T10:37:11.065Z,1535
2018-03-25T10:38:11.809Z,1524
2018-03-25T10:39:12.644Z,1530
2018-03-25T10:40:13.389Z,1524
2018-03-25T10:41:14.222Z,1541
2018-03-25T10:42:15.022Z,1490
2018-03-25T10:43:15.835Z,1479
2018-03-25T10:44:16.644Z,1473
2018-03-25T10:45:17.371Z,1490
2018-03-25T10:46:18.106Z,1535
2018-03-25T10:47:18.870Z,1563
2018-03-25T10:48:19.679Z,1620
2018-03-25T10:49:20.432Z,1665
2018-03-25T10:50:21.156Z,1698
2018-03-25T10:51:21.936Z,1676
2018-03-25T10:52:22.680Z,1636
2018-03-25T10:53:23.413Z,1608
2018-03-25T10:54:24.218Z,1586
2018-03-25T10:55:24.949Z,1614
2018-03-25T10:56:25.750Z,1625
2018-03-25T10:57:26.606Z,1591
2018-03-25T10:58:27.289Z,1563
2018-03-25T10:59:28.027Z,1603
2018-03-25T11:00:28.764Z,1597
2018-03-25T11:01:29.610Z,1625
2018-03-25T11:02:30.356Z,1625
2018-03-25T11:03:31.096Z,1620
2018-03-25T11:04:31.909Z,1614
2018-03-25T11:05:32.726Z,1670
2018-03-25T11:06:33.562Z,1648
2018-03-25T11:07:34.322Z,1670
2018-03-25T11:08:35.042Z,1794
2018-03-25T11:09:35.798Z,1620
2018-03-25T11:10:36.603Z,1569
2018-03-25T11:11:37.449Z,1614
2018-03-25T11:12:38.258Z,1771
2018-03-25T11:13:38.962Z,1873
2018-03-25T11:14:39.704Z,1850
2018-03-25T11:15:40.449Z,1996
2018-03-25T11:16:41.244Z,1816
2018-03-25T11:17:41.987Z,1721
2018-03-25T11:18:42.809Z,1732
2018-03-25T11:19:43.560Z,1687
2018-03-25T11:20:44.307Z,1755
2018-03-25T11:21:45.114Z,1788
2018-03-25T11:22:45.860Z,1760
2018-03-25T11:23:46.896Z,1783
2018-03-25T11:24:47.639Z,1777
2018-03-25T11:25:48.388Z,1766
2018-03-25T11:26:49.206Z,1800
2018-03-25T11:27:50.023Z,1783
2018-03-25T11:28:50.788Z,1710
2018-03-25T11:29:51.522Z,1693
2018-03-25T11:30:52.265Z,1738
2018-03-25T11:31:53.118Z,1951
2018-03-25T11:32:53.830Z,1783
2018-03-25T11:33:54.616Z,1687
2018-03-25T11:34:55.373Z,1659
2018-03-25T11:35:56.109Z,1670
2018-03-25T11:36:56.852Z,1636
2018-03-25T11:37:57.601Z,1625
2018-03-25T11:38:58.335Z,1704
2018-03-25T11:39:59.066Z,1822
2018-03-25T11:40:59.808Z,1726
2018-03-25T11:42:00.570Z,1766
2018-03-25T11:43:01.495Z,1715
2018-03-25T11:44:02.363Z,1912
2018-03-25T11:45:03.082Z,1681
2018-03-25T11:46:03.991Z,1693
2018-03-25T11:47:04.871Z,1755
2018-03-25T11:48:05.670Z,1676
2018-03-25T11:49:06.416Z,1653
2018-03-25T11:50:07.162Z,1698
2018-03-25T11:51:07.979Z,1878
2018-03-25T11:52:08.826Z,1800
2018-03-25T11:53:09.584Z,1783
2018-03-25T11:54:10.329Z,1636
2018-03-25T11:55:11.065Z,1563
2018-03-25T11:56:11.851Z,1608
2018-03-25T11:57:12.650Z,1541
2018-03-25T11:58:13.490Z,1569
2018-03-25T11:59:14.330Z,1490
2018-03-25T12:00:15.153Z,1485
2018-03-25T12:01:15.972Z,1462
2018-03-25T12:02:16.705Z,1417
2018-03-25T12:03:17.447Z,1378
2018-03-25T12:04:18.254Z,1355
2018-03-25T12:05:19.070Z,1344
2018-03-25T12:06:19.820Z,1338
2018-03-25T12:07:20.575Z,1327
2018-03-25T12:08:21.446Z,1305
2018-03-25T12:09:22.249Z,1282
2018-03-25T12:10:23.050Z,1271
2018-03-25T12:11:23.831Z,1254
2018-03-25T12:12:24.529Z,1231
2018-03-25T12:13:25.279Z,1203
2018-03-25T12:14:26.021Z,1186
2018-03-25T12:15:26.749Z,1181
2018-03-25T12:16:27.577Z,1175
2018-03-25T12:17:28.305Z,1158
2018-03-25T12:18:29.411Z,1147
2018-03-25T12:19:30.152Z,1147
2018-03-25T12:20:30.907Z,1147
2018-03-25T12:21:31.653Z,1147
2018-03-25T12:22:32.390Z,1130
2018-03-25T12:23:33.152Z,1130
2018-03-25T12:24:33.880Z,1125
2018-03-25T12:25:34.612Z,1113
2018-03-25T12:26:35.412Z,1108
2018-03-25T12:27:36.152Z,1102
2018-03-25T12:28:36.958Z,1108
2018-03-25T12:29:37.787Z,1096
2018-03-25T12:30:38.580Z,1080
2018-03-25T12:31:39.377Z,1051
2018-03-25T12:32:40.131Z,1040
2018-03-25T12:33:40.900Z,1035
2018-03-25T12:34:41.677Z,1023
2018-03-25T12:35:42.431Z,1006
2018-03-25T12:36:43.246Z,984
2018-03-25T12:37:44.054Z,961
2018-03-25T12:38:44.858Z,950
2018-03-25T12:39:45.609Z,939
2018-03-25T12:40:46.468Z,939
2018-03-25T12:41:47.275Z,928
2018-03-25T12:42:47.997Z,911
2018-03-25T12:43:48.678Z,905
2018-03-25T12:44:49.641Z,900
2018-03-25T12:45:50.339Z,900
2018-03-25T12:46:51.446Z,888
2018-03-25T12:47:52.156Z,877
2018-03-25T12:48:52.969Z,866
2018-03-25T12:49:53.701Z,860
2018-03-25T12:50:54.532Z,849
2018-03-25T12:51:55.384Z,843
2018-03-25T12:52:56.182Z,843
2018-03-25T12:53:57.000Z,838
2018-03-25T12:54:57.772Z,821
2018-03-25T12:55:58.599Z,810
2018-03-25T12:56:59.447Z,793
2018-03-25T12:58:00.181Z,787
2018-03-25T12:59:00.937Z,776
2018-03-25T13:00:01.652Z,776
2018-03-25T13:01:02.414Z,770
2018-03-25T13:02:03.485Z,765
2018-03-25T13:03:04.229Z,753
2018-03-25T13:04:04.960Z,748
2018-03-25T13:05:05.763Z,736
2018-03-25T13:06:06.544Z,725
2018-03-25T13:07:07.378Z,731
2018-03-25T13:08:08.132Z,731
2018-03-25T13:09:08.924Z,736
2018-03-25T13:10:09.747Z,736
2018-03-25T13:11:10.546Z,736
2018-03-25T13:12:11.351Z,731
2018-03-25T13:13:12.217Z,708
2018-03-25T13:14:13.048Z,703
2018-03-25T13:15:13.802Z,697
2018-03-25T13:16:14.554Z,691
2018-03-25T13:17:15.302Z,686
2018-03-25T13:18:16.050Z,680
2018-03-25T13:19:16.826Z,680
2018-03-25T13:20:17.649Z,669
2018-03-25T13:21:18.501Z,675
2018-03-25T13:22:19.320Z,658
2018-03-25T13:23:20.045Z,641
2018-03-25T13:24:21.240Z,624
2018-03-25T13:25:21.964Z,613
2018-03-25T13:26:22.786Z,607
2018-03-25T13:27:23.586Z,607
2018-03-25T13:28:24.394Z,601
2018-03-25T13:29:25.125Z,596
2018-03-25T13:30:25.926Z,585
2018-03-25T13:31:26.724Z,579
2018-03-25T13:32:27.569Z,573
2018-03-25T13:33:28.434Z,579
2018-03-25T13:34:29.236Z,585
2018-03-25T13:35:30.063Z,596
2018-03-25T13:36:30.796Z,607
2018-03-25T13:37:31.562Z,613
2018-03-25T13:38:32.337Z,618
2018-03-25T13:39:33.080Z,618
2018-03-25T13:40:33.933Z,624
2018-03-25T13:41:34.681Z,630
2018-03-25T13:42:35.897Z,635
2018-03-25T13:43:36.578Z,641
2018-03-25T13:44:37.320Z,641
2018-03-25T13:45:38.070Z,641
2018-03-25T13:46:38.802Z,646
2018-03-25T13:47:39.622Z,646
2018-03-25T13:48:41.452Z,658
2018-03-25T13:49:42.412Z,663
2018-03-25T13:50:43.145Z,669
2018-03-25T13:51:43.929Z,675
2018-03-25T13:52:44.717Z,675
2018-03-25T13:53:45.444Z,675
2018-03-25T13:54:46.396Z,675
2018-03-25T13:55:47.146Z,675
2018-03-25T13:56:47.897Z,669
2018-03-25T13:57:48.688Z,663
2018-03-25T13:58:49.418Z,663
2018-03-25T13:59:50.176Z,663
2018-03-25T14:00:50.980Z,669
2018-03-25T14:01:51.699Z,663
2018-03-25T14:02:52.450Z,669
2018-03-25T14:03:53.179Z,663
2018-03-25T14:04:53.923Z,658
2018-03-25T14:05:54.738Z,652
2018-03-25T14:06:55.478Z,658
2018-03-25T14:07:56.224Z,646
2018-03-25T14:08:56.989Z,652
2018-03-25T14:09:57.714Z,652
2018-03-25T14:10:58.800Z,658
2018-03-25T14:11:59.672Z,663